createdAt,value
2019-04-20T00:02:11.913Z,8.98
2019-04-20T00:05:09.694Z,8.93
2019-04-20T00:08:21.005Z,8.76
2019-04-20T00:11:27.569Z,8.85
2019-04-20T00:14:29.571Z,8.77
2019-04-20T00:17:30.649Z,8.80
2019-04-20T00:20:37.173Z,8.79
2019-04-20T00:23:46.800Z,8.74
2019-04-20T00:27:14.618Z,8.70
2019-04-20T00:30:06.720Z,8.56
2019-04-20T00:33:09.664Z,8.47
2019-04-20T00:36:07.245Z,8.59
2019-04-20T00:39:14.995Z,8.58
2019-04-20T00:42:18.537Z,8.34
2019-04-20T00:45:28.335Z,8.13
2019-04-20T00:48:40.341Z,7.93
2019-04-20T00:51:53.829Z,8.02
2019-04-20T00:54:41.238Z,7.98
2019-04-20T00:57:53.024Z,8.03
2019-04-20T01:01:20.605Z,7.78
2019-04-20T01:04:15.296Z,7.73
2019-04-20T01:07:23.277Z,7.59
2019-04-20T01:10:17.309Z,7.53
2019-04-20T01:13:23.901Z,7.78
2019-04-20T01:16:36.544Z,7.48
2019-04-20T01:19:32.446Z,7.46
2019-04-20T01:22:45.474Z,7.46
2019-04-20T01:25:44.293Z,7.33
2019-04-20T01:29:03.866Z,7.41
2019-04-20T01:32:06.128Z,7.25
2019-04-20T01:35:14.061Z,7.09
2019-04-20T01:38:20.942Z,7.17
2019-04-20T01:41:09.859Z,6.97
2019-04-20T01:44:18.949Z,7.02
2019-04-20T01:47:22.701Z,7.07
2019-04-20T01:54:48.591Z,6.91
2019-04-20T01:57:56.214Z,6.68
2019-04-20T02:01:13.587Z,6.61
2019-04-20T02:04:20.521Z,6.59
2019-04-20T02:07:28.448Z,6.47
2019-04-20T02:10:37.042Z,6.54
2019-04-20T02:13:43.676Z,6.59
2019-04-20T02:16:44.045Z,6.52
2019-04-20T02:20:05.491Z,6.53
2019-04-20T02:23:04.126Z,6.63
2019-04-20T02:25:56.597Z,6.60
2019-04-20T02:29:24.578Z,6.54
2019-04-20T02:42:34.033Z,6.58
2019-04-20T02:45:42.309Z,6.67
2019-04-20T02:48:50.271Z,6.42
2019-04-20T02:52:02.537Z,6.30
2019-04-20T02:55:05.903Z,6.14
2019-04-20T03:00:58.324Z,6.08
2019-04-20T03:03:48.942Z,6.06
2019-04-20T03:07:03.861Z,5.82
2019-04-20T03:10:12.462Z,5.81
2019-04-20T03:13:18.329Z,5.78
2019-04-20T03:16:27.809Z,5.85
2019-04-20T03:19:23.478Z,5.99
2019-04-20T03:23:07.338Z,6.01
2019-04-20T03:25:55.406Z,5.86
2019-04-20T03:29:07.824Z,5.92
2019-04-20T03:32:57.643Z,5.91
2019-04-20T03:35:28.676Z,5.88
2019-04-20T03:38:26.258Z,5.72
2019-04-20T03:41:24.427Z,5.59
2019-04-20T03:44:25.630Z,5.66
2019-04-20T03:47:35.854Z,5.66
2019-04-20T03:50:54.684Z,5.49
2019-04-20T03:54:17.010Z,5.34
2019-04-20T03:57:35.748Z,5.36
2019-04-20T04:00:45.785Z,5.57
2019-04-20T04:03:58.796Z,5.32
2019-04-20T04:06:50.958Z,5.19
2019-04-20T04:10:08.546Z,5.28
2019-04-20T04:13:12.286Z,5.20
2019-04-20T04:16:18.931Z,5.05
2019-04-20T04:19:28.424Z,5.22
2019-04-20T04:22:43.706Z,4.94
2019-04-20T04:25:53.198Z,5.11
2019-04-20T04:28:53.208Z,5.02
2019-04-20T04:32:12.046Z,5.02
2019-04-20T04:35:05.202Z,4.98
2019-04-20T04:38:15.252Z,5.15
2019-04-20T04:44:19.348Z,5.16
2019-04-20T04:47:13.367Z,5.00
2019-04-20T04:50:23.214Z,5.13
2019-04-20T04:53:37.431Z,5.19
2019-04-20T04:56:30.356Z,5.18
2019-04-20T04:59:34.488Z,5.16
2019-04-20T05:02:45.287Z,5.28
2019-04-20T05:06:08.896Z,5.25
2019-04-20T05:08:58.496Z,5.17
2019-04-20T05:12:05.430Z,5.25
2019-04-20T05:15:13.103Z,5.34
2019-04-20T05:18:34.665Z,5.59
2019-04-20T05:21:58.761Z,5.76
2019-04-20T05:25:09.167Z,5.89
2019-04-20T05:28:11.874Z,5.91
2019-04-20T05:31:03.582Z,6.12
2019-04-20T05:34:29.529Z,6.14
2019-04-20T05:37:34.655Z,6.30
2019-04-20T05:40:42.676Z,6.51
2019-04-20T05:43:57.876Z,6.74
2019-04-20T05:47:07.842Z,6.74
2019-04-20T05:50:00.987Z,6.86
2019-04-20T05:53:14.411Z,7.05
2019-04-20T05:56:16.985Z,6.94
2019-04-20T05:59:23.486Z,7.21
2019-04-20T06:02:32.123Z,7.26
2019-04-20T06:05:45.907Z,7.39
2019-04-20T06:08:48.025Z,7.54
2019-04-20T06:12:04.881Z,7.72
2019-04-20T06:15:04.511Z,7.90
2019-04-20T06:18:18.977Z,8.09
2019-04-20T06:21:34.687Z,8.39
2019-04-20T06:24:44.900Z,8.39
2019-04-20T06:27:49.203Z,8.63
2019-04-20T06:30:43.200Z,8.81
2019-04-20T06:37:29.292Z,9.17
2019-04-20T06:40:50.150Z,9.35
2019-04-20T06:43:40.999Z,9.69
2019-04-20T06:46:48.658Z,9.89
2019-04-20T06:49:38.437Z,10.01
2019-04-20T06:53:31.055Z,10.03
2019-04-20T06:56:29.130Z,10.17
2019-04-20T06:59:39.290Z,10.36
2019-04-20T07:02:41.787Z,10.37
2019-04-20T07:05:49.062Z,10.78
2019-04-20T07:08:57.307Z,10.90
2019-04-20T07:11:53.020Z,10.93
2019-04-20T07:14:49.637Z,10.95
2019-04-20T07:18:08.257Z,11.26
2019-04-20T07:21:23.422Z,11.36
2019-04-20T07:24:35.049Z,11.41
2019-04-20T07:27:33.626Z,11.60
2019-04-20T07:30:40.342Z,11.59
2019-04-20T07:33:46.354Z,12.27
2019-04-20T07:36:57.406Z,11.68
2019-04-20T07:39:53.739Z,11.82
2019-04-20T07:42:58.946Z,12.08
2019-04-20T07:46:10.275Z,12.38
2019-04-20T07:49:12.864Z,12.41
2019-04-20T07:51:55.558Z,12.49
2019-04-20T07:55:32.991Z,12.38
2019-04-20T07:58:18.964Z,12.74
2019-04-20T08:01:45.277Z,13.03
2019-04-20T08:04:49.978Z,13.42
2019-04-20T08:07:46.395Z,13.34
2019-04-20T08:11:00.760Z,13.52
2019-04-20T08:14:14.528Z,13.63
2019-04-20T08:17:22.925Z,14.00
2019-04-20T08:20:17.329Z,14.10
2019-04-20T08:23:38.838Z,14.43
2019-04-20T08:26:18.213Z,14.13
2019-04-20T08:29:41.736Z,14.54
2019-04-20T08:33:12.250Z,14.75
2019-04-20T08:36:22.837Z,14.91
2019-04-20T08:39:41.168Z,14.61
2019-04-20T08:42:39.951Z,14.97
2019-04-20T08:45:41.870Z,14.88
2019-04-20T08:48:46.820Z,15.43
2019-04-20T08:52:05.959Z,15.25
2019-04-20T08:55:01.289Z,15.67
2019-04-20T08:57:44.862Z,15.60
2019-04-20T09:00:55.425Z,15.64
2019-04-20T09:04:05.111Z,16.43
2019-04-20T09:07:10.142Z,16.24
2019-04-20T09:10:28.178Z,16.48
2019-04-20T09:13:23.061Z,15.94
2019-04-20T09:16:19.956Z,15.84
2019-04-20T09:19:36.767Z,15.92
2019-04-20T09:22:46.959Z,16.43
2019-04-20T09:29:07.274Z,16.73
2019-04-20T09:32:34.342Z,16.73
2019-04-20T09:35:39.145Z,17.04
2019-04-20T09:38:58.338Z,17.11
2019-04-20T09:42:10.781Z,17.23
2019-04-20T09:45:23.354Z,18.58
2019-04-20T09:48:31.792Z,18.12
2019-04-20T09:51:43.692Z,18.14
2019-04-20T09:54:51.884Z,18.79
2019-04-20T09:57:59.106Z,18.31
2019-04-20T10:01:03.290Z,19.43
2019-04-20T10:03:51.050Z,19.40
2019-04-20T10:06:55.324Z,19.40
2019-04-20T10:09:59.930Z,18.88
2019-04-20T10:13:05.695Z,19.90
2019-04-20T10:16:09.383Z,20.39
2019-04-20T10:19:13.730Z,19.91
2019-04-20T10:22:18.449Z,20.28
2019-04-20T10:25:22.598Z,22.59
2019-04-20T10:28:27.609Z,23.63
2019-04-20T10:31:35.715Z,23.25
2019-04-20T10:34:37.106Z,24.10
2019-04-20T10:37:45.641Z,25.18
2019-04-20T10:40:58.464Z,25.11
2019-04-20T10:43:55.064Z,25.33
2019-04-20T10:46:59.089Z,26.13
2019-04-20T10:50:03.198Z,26.01
2019-04-20T10:53:07.922Z,24.07
2019-04-20T10:56:11.794Z,24.17
2019-04-20T10:59:15.979Z,24.61
2019-04-20T11:02:21.528Z,24.91
2019-04-20T11:05:26.462Z,24.41
2019-04-20T11:08:30.679Z,24.64
2019-04-20T11:11:35.783Z,25.32
2019-04-20T11:14:43.479Z,24.87
2019-04-20T11:17:45.834Z,26.11
2019-04-20T11:20:51.106Z,26.23
2019-04-20T11:23:56.148Z,26.56
2019-04-20T11:27:00.416Z,26.49
2019-04-20T11:30:05.045Z,27.43
2019-04-20T11:33:09.951Z,28.20
2019-04-20T11:36:14.967Z,28.93
2019-04-20T11:39:18.857Z,28.82
2019-04-20T11:42:23.619Z,30.19
2019-04-20T11:45:28.741Z,30.93
2019-04-20T11:48:33.792Z,31.28
2019-04-20T11:51:37.823Z,30.93
2019-04-20T11:54:42.192Z,31.25
2019-04-20T11:57:47.196Z,32.02
2019-04-20T12:01:02.747Z,30.22
2019-04-20T12:04:02.839Z,31.64
2019-04-20T12:07:04.752Z,27.92
2019-04-20T12:10:14.878Z,30.92
2019-04-20T12:13:14.805Z,29.26
2019-04-20T12:16:19.380Z,32.27
2019-04-20T12:19:24.615Z,31.32
2019-04-20T12:22:28.821Z,32.48
2019-04-20T12:25:35.889Z,32.53
2019-04-20T12:28:38.201Z,32.23
2019-04-20T12:31:46.340Z,33.41
2019-04-20T12:34:47.670Z,32.51
2019-04-20T12:37:51.773Z,32.48
2019-04-20T12:40:55.736Z,33.14
2019-04-20T12:43:59.640Z,33.50
2019-04-20T12:47:03.706Z,34.53
2019-04-20T12:50:10.200Z,34.15
2019-04-20T12:53:14.814Z,34.09
2019-04-20T12:56:18.672Z,32.30
2019-04-20T12:59:23.491Z,34.03
2019-04-20T13:02:27.753Z,33.99
2019-04-20T13:05:31.874Z,32.42
2019-04-20T13:08:41.553Z,33.27
2019-04-20T13:11:56.821Z,33.76
2019-04-20T13:15:32.063Z,33.88
2019-04-20T13:18:43.438Z,32.77
2019-04-20T13:21:47.302Z,32.77
2019-04-20T13:24:51.088Z,34.49
2019-04-20T13:27:54.858Z,31.61
2019-04-20T13:30:59.762Z,34.35
2019-04-20T13:34:03.808Z,32.09
2019-04-20T13:37:08.445Z,33.71
2019-04-20T13:40:12.910Z,33.05
2019-04-20T13:43:17.618Z,33.39
2019-04-20T13:46:22.804Z,32.13
2019-04-20T13:49:27.119Z,31.89
2019-04-20T13:52:31.009Z,32.11
2019-04-20T13:55:35.941Z,33.56
2019-04-20T13:58:56.885Z,31.31
2019-04-20T14:02:17.831Z,31.34
2019-04-20T14:05:32.807Z,29.99
2019-04-20T14:08:37.493Z,28.99
2019-04-20T14:11:41.429Z,28.57
2019-04-20T14:14:46.823Z,28.11
2019-04-20T14:17:51.290Z,27.64
2019-04-20T14:20:56.302Z,28.23
2019-04-20T14:24:01.326Z,26.98
2019-04-20T14:27:06.477Z,27.83
2019-04-20T14:30:11.108Z,26.18
2019-04-20T14:33:14.827Z,25.55
2019-04-20T14:36:19.094Z,24.76
2019-04-20T14:39:22.899Z,23.33
2019-04-20T14:42:35.455Z,22.66
2019-04-20T14:45:32.404Z,21.86
2019-04-20T14:48:36.620Z,21.48
2019-04-20T14:51:41.574Z,20.89
2019-04-20T14:54:45.665Z,21.47
2019-04-20T14:57:49.795Z,20.95
2019-04-20T15:00:58.584Z,20.94
2019-04-20T15:04:06.758Z,20.59
2019-04-20T15:07:08.765Z,20.62
2019-04-20T15:10:13.061Z,19.25
2019-04-20T15:13:17.069Z,19.95
2019-04-20T15:16:22.480Z,19.87
2019-04-20T15:19:31.731Z,20.00
2019-04-20T15:22:39.241Z,19.15
2019-04-20T15:25:44.383Z,19.45
2019-04-20T15:28:48.613Z,19.17
2019-04-20T15:31:54.205Z,19.29
2019-04-20T15:34:58.649Z,18.79
2019-04-20T15:38:02.928Z,19.25
2019-04-20T15:41:08.781Z,19.06
2019-04-20T15:44:13.243Z,18.90
2019-04-20T15:47:17.503Z,18.76
2019-04-20T15:50:22.168Z,18.61
2019-04-20T15:53:26.339Z,18.96
2019-04-20T15:56:30.306Z,18.90
2019-04-20T15:59:34.750Z,19.05
2019-04-20T16:02:57.133Z,18.55
2019-04-20T16:06:03.343Z,18.81
2019-04-20T16:09:08.501Z,18.49
2019-04-20T16:12:13.025Z,18.41
2019-04-20T16:15:17.893Z,18.53
2019-04-20T16:18:23.018Z,18.44
2019-04-20T16:21:30.218Z,18.12
2019-04-20T16:24:37.512Z,18.26
2019-04-20T16:27:41.613Z,18.03
2019-04-20T16:30:45.751Z,17.82
2019-04-20T16:33:50.560Z,17.71
2019-04-20T16:36:56.932Z,17.62
2019-04-20T16:40:02.793Z,17.69
2019-04-20T16:43:17.979Z,17.41
2019-04-20T16:46:13.063Z,17.56
2019-04-20T16:49:17.019Z,17.36
2019-04-20T16:52:21.184Z,17.28
2019-04-20T16:55:25.200Z,17.32
2019-04-20T16:58:29.236Z,17.30
2019-04-20T17:01:33.364Z,17.04
2019-04-20T17:04:37.505Z,16.94
2019-04-20T17:07:44.761Z,16.98
2019-04-20T17:10:48.917Z,16.92
2019-04-20T17:13:55.363Z,16.69
2019-04-20T17:16:58.341Z,16.60
2019-04-20T17:20:03.881Z,16.62
2019-04-20T17:23:10.325Z,16.45
2019-04-20T17:26:16.857Z,16.25
2019-04-20T17:29:24.231Z,16.07
2019-04-20T17:32:29.564Z,16.19
2019-04-20T17:35:44.977Z,15.88
2019-04-20T17:38:44.567Z,15.90
2019-04-20T17:42:03.016Z,15.86
2019-04-20T17:45:00.711Z,15.58
2019-04-20T17:48:08.915Z,15.39
2019-04-20T17:51:23.427Z,15.43
2019-04-20T17:54:22.368Z,15.13
2019-04-20T17:57:26.167Z,15.07
2019-04-20T18:00:52.806Z,14.97
2019-04-20T18:04:22.586Z,14.66
2019-04-20T18:07:25.168Z,14.55
2019-04-20T18:10:26.099Z,14.49
2019-04-20T18:13:20.192Z,14.23
2019-04-20T18:16:45.452Z,14.29
2019-04-20T18:19:36.810Z,14.14
2019-04-20T18:22:44.149Z,14.00
2019-04-20T18:26:15.922Z,13.79
2019-04-20T18:29:10.678Z,14.00
2019-04-20T18:32:05.118Z,13.87
2019-04-20T18:35:14.013Z,13.53
2019-04-20T18:38:18.459Z,13.42
2019-04-20T18:41:31.428Z,13.45
2019-04-20T18:44:46.135Z,13.34
2019-04-20T18:47:55.165Z,12.99
2019-04-20T18:50:42.180Z,13.24
2019-04-20T18:53:48.194Z,12.98
2019-04-20T18:56:52.995Z,12.89
2019-04-20T18:59:57.196Z,12.92
2019-04-20T19:03:09.605Z,12.67
2019-04-20T19:06:09.044Z,12.69
2019-04-20T19:09:16.798Z,12.62
2019-04-20T19:12:21.682Z,12.60
2019-04-20T19:16:00.262Z,12.39
2019-04-20T19:19:09.919Z,12.15
2019-04-20T19:22:06.065Z,12.21
2019-04-20T19:25:18.487Z,12.18
2019-04-20T19:28:21.613Z,11.84
2019-04-20T19:31:41.506Z,11.99
2019-04-20T19:34:44.610Z,11.91
2019-04-20T19:37:40.737Z,11.71
2019-04-20T19:40:47.939Z,11.85
2019-04-20T19:43:56.403Z,11.78
2019-04-20T19:47:11.046Z,11.61
2019-04-20T19:50:25.248Z,11.61
2019-04-20T19:53:26.362Z,11.40
2019-04-20T19:56:26.394Z,11.32
2019-04-20T19:59:23.365Z,11.44
2019-04-20T20:02:19.147Z,11.51
2019-04-20T20:05:31.452Z,11.31
2019-04-20T20:08:31.576Z,11.08
2019-04-20T20:11:39.180Z,11.10
2019-04-20T20:14:44.796Z,10.99
2019-04-20T20:18:05.792Z,10.79
2019-04-20T20:21:08.522Z,10.57
2019-04-20T20:23:57.412Z,10.57
2019-04-20T20:27:06.176Z,10.44
2019-04-20T20:30:15.065Z,10.44
2019-04-20T20:33:28.018Z,10.32
2019-04-20T20:36:21.719Z,10.09
2019-04-20T20:39:29.384Z,10.05
2019-04-20T20:42:45.764Z,10.10
2019-04-20T20:45:42.346Z,10.07
2019-04-20T20:49:04.922Z,10.19
2019-04-20T20:52:06.732Z,9.97
2019-04-20T20:55:03.674Z,9.83
2019-04-20T20:58:09.777Z,9.80
2019-04-20T21:01:14.373Z,9.69
2019-04-20T21:04:10.071Z,9.68
2019-04-20T21:07:13.800Z,9.64
2019-04-20T21:10:25.852Z,9.48
2019-04-20T21:13:28.361Z,9.54
2019-04-20T21:16:32.921Z,9.43
2019-04-20T21:19:53.357Z,9.52
2019-04-20T21:22:54.873Z,9.41
2019-04-20T21:26:04.790Z,9.50
2019-04-20T21:29:10.149Z,9.46
2019-04-20T21:32:17.959Z,9.41
2019-04-20T21:35:21.744Z,9.18
2019-04-20T21:38:31.379Z,9.12
2019-04-20T21:41:31.457Z,9.05
2019-04-20T21:44:40.745Z,8.98
2019-04-20T21:47:43.584Z,8.90
2019-04-20T21:51:01.627Z,8.87
2019-04-20T21:53:56.432Z,8.76
2019-04-20T21:57:03.120Z,8.60
2019-04-20T22:00:15.105Z,8.42
2019-04-20T22:03:14.655Z,8.38
2019-04-20T22:06:18.348Z,8.46
2019-04-20T22:09:25.089Z,8.46
2019-04-20T22:12:37.595Z,8.22
2019-04-20T22:15:35.365Z,7.99
2019-04-20T22:18:49.524Z,7.94
2019-04-20T22:22:00.050Z,8.02
2019-04-20T22:25:02.701Z,7.83
2019-04-20T22:27:58.515Z,7.86
2019-04-20T22:31:02.191Z,7.67
2019-04-20T22:34:09.010Z,7.73
2019-04-20T22:37:17.921Z,7.61
2019-04-20T22:40:21.951Z,7.49
2019-04-20T22:43:26.151Z,7.47
2019-04-20T22:46:31.807Z,7.44
2019-04-20T22:49:48.188Z,7.42
2019-04-20T22:52:50.431Z,7.37
2019-04-20T22:56:11.100Z,7.28
2019-04-20T22:59:01.071Z,7.16
2019-04-20T23:02:00.345Z,7.25
2019-04-20T23:05:02.841Z,7.25
2019-04-20T23:08:06.812Z,7.19
2019-04-20T23:11:17.965Z,7.20
2019-04-20T23:14:18.269Z,6.90
2019-04-20T23:17:26.988Z,6.79
2019-04-20T23:20:32.565Z,6.85
2019-04-20T23:23:33.870Z,6.63
2019-04-20T23:26:42.230Z,6.75
2019-04-20T23:29:45.188Z,6.75
2019-04-20T23:32:49.739Z,6.90
2019-04-20T23:35:56.582Z,6.60
2019-04-20T23:39:02.613Z,6.53
2019-04-20T23:42:08.532Z,6.43
2019-04-20T23:45:26.985Z,6.58
2019-04-20T23:48:35.981Z,6.21
2019-04-20T23:51:59.244Z,6.28
2019-04-20T23:54:51.329Z,6.09
2019-04-20T23:57:56.789Z,6.19
